createdAt,value
2022-08-26T00:06:15.891Z,22.8
2022-08-26T00:10:10.157Z,22.8
2022-08-26T00:15:06.521Z,22.7
2022-08-26T00:20:21.959Z,22.7
2022-08-26T00:25:33.074Z,22.5
2022-08-26T00:30:39.448Z,22.5
2022-08-26T00:36:19.995Z,22.4
2022-08-26T00:40:42.202Z,22.4
2022-08-26T00:51:40.312Z,22.2
2022-08-26T00:56:50.718Z,22.2
2022-08-26T01:01:53.268Z,22.1
2022-08-26T01:06:49.470Z,22.1
2022-08-26T01:11:55.854Z,22.0
2022-08-26T01:17:12.244Z,22.0
2022-08-26T01:22:18.809Z,21.9
2022-08-26T01:27:15.285Z,21.8
2022-08-26T01:32:35.735Z,21.8
2022-08-26T01:37:39.002Z,21.7
2022-08-26T01:42:44.491Z,21.7
2022-08-26T01:47:57.173Z,21.6
2022-08-26T01:52:57.262Z,21.6
2022-08-26T01:58:03.816Z,21.5
2022-08-26T02:03:10.412Z,21.5
2022-08-26T02:08:16.891Z,21.5
2022-08-26T02:13:27.278Z,21.4
2022-08-26T02:18:29.649Z,21.3
2022-08-26T02:23:36.580Z,21.3
2022-08-26T02:28:43.156Z,21.2
2022-08-26T02:33:49.540Z,21.2
2022-08-26T02:38:46.239Z,21.1
2022-08-26T02:44:02.322Z,21.1
2022-08-26T02:49:08.771Z,21.0
2022-08-26T02:54:15.131Z,21.0
2022-08-26T02:59:25.547Z,20.9
2022-08-26T03:15:00.764Z,20.8
2022-08-26T03:19:49.044Z,20.7
2022-08-26T03:24:53.596Z,20.7
2022-08-26T03:30:00.002Z,20.6
2022-08-26T03:35:06.465Z,20.6
2022-08-26T03:40:12.930Z,20.5
2022-08-26T03:45:19.247Z,20.5
2022-08-26T03:50:25.637Z,20.4
2022-08-26T03:55:23.624Z,20.4
2022-08-26T04:00:38.425Z,20.3
2022-08-26T04:05:44.980Z,20.3
2022-08-26T04:10:41.473Z,20.2
2022-08-26T04:15:58.071Z,20.3
2022-08-26T04:22:06.494Z,20.2
2022-08-26T04:26:00.750Z,20.2
2022-08-26T04:31:07.161Z,20.3
2022-08-26T04:36:26.534Z,20.3
2022-08-26T04:41:31.524Z,20.3
2022-08-26T04:46:26.356Z,20.3
2022-08-26T04:51:43.935Z,20.3
2022-08-26T04:56:39.325Z,20.4
2022-08-26T05:01:45.944Z,20.4
2022-08-26T05:07:02.981Z,20.4
2022-08-26T05:11:58.699Z,20.4
2022-08-26T05:17:15.238Z,20.4
2022-08-26T05:22:21.464Z,20.5
2022-08-26T05:27:47.868Z,20.5
2022-08-26T05:37:40.591Z,20.6
2022-08-26T05:42:36.962Z,20.7
2022-08-26T05:52:59.795Z,20.7
2022-08-26T05:57:59.167Z,20.8
2022-08-26T06:03:05.723Z,20.8
2022-08-26T06:08:20.951Z,20.8
2022-08-26T06:18:58.999Z,21.0
2022-08-26T06:23:32.368Z,21.0
2022-08-26T06:35:11.952Z,21.1
2022-08-26T06:39:03.047Z,21.2
2022-08-26T06:44:32.521Z,21.2
2022-08-26T06:50:29.081Z,21.3
2022-08-26T06:54:23.330Z,21.3
2022-08-26T06:59:53.768Z,21.4
2022-08-26T07:05:02.237Z,21.4
2022-08-26T07:09:45.684Z,21.5
2022-08-26T07:15:12.151Z,21.6
2022-08-26T07:19:58.449Z,21.6
2022-08-26T07:25:04.823Z,21.7
2022-08-26T07:30:11.203Z,21.8
2022-08-26T07:35:17.621Z,21.9
2022-08-26T07:40:28.060Z,22.0
2022-08-26T07:46:06.085Z,22.2
2022-08-26T07:51:13.449Z,22.2
2022-08-26T07:56:19.837Z,22.3
2022-08-26T08:01:16.217Z,22.4
2022-08-26T08:07:07.491Z,22.5
2022-08-26T08:12:14.413Z,22.5
2022-08-26T08:17:20.649Z,22.6
2022-08-26T08:22:27.290Z,22.7
2022-08-26T08:27:57.452Z,22.8
2022-08-26T08:37:46.157Z,22.9
2022-08-26T08:47:58.900Z,23.1
2022-08-26T08:52:55.423Z,23.1
2022-08-26T08:58:12.163Z,23.2
2022-08-26T09:03:08.385Z,23.3
2022-08-26T09:08:14.757Z,23.4
2022-08-26T09:13:31.718Z,23.5
2022-08-26T09:18:37.582Z,23.6
2022-08-26T09:23:43.974Z,23.7
2022-08-26T09:28:40.426Z,23.8
2022-08-26T09:33:56.824Z,24.0
2022-08-26T09:39:03.197Z,24.0
2022-08-26T09:44:14.718Z,24.2
2022-08-26T09:54:24.523Z,24.4
2022-08-26T09:59:30.902Z,24.5
2022-08-26T10:04:27.303Z,24.6
2022-08-26T10:10:45.069Z,24.6
2022-08-26T10:25:44.595Z,24.9
2022-08-26T10:30:42.826Z,25.1
2022-08-26T10:35:57.565Z,25.2
2022-08-26T10:41:23.995Z,25.3
2022-08-26T10:46:30.571Z,25.4
2022-08-26T11:08:33.127Z,26.3
2022-08-26T11:12:31.611Z,26.3
2022-08-26T11:17:39.602Z,26.5
2022-08-26T11:22:47.861Z,26.5
2022-08-26T11:27:42.362Z,26.6
2022-08-26T11:33:22.875Z,26.6
2022-08-26T11:38:05.459Z,26.6
2022-08-26T11:43:01.771Z,26.7
2022-08-26T11:49:30.287Z,26.8
2022-08-26T11:53:24.557Z,26.8
2022-08-26T11:58:55.079Z,26.8
2022-08-26T12:08:43.978Z,27.0
2022-08-26T12:13:50.406Z,27.0
2022-08-26T12:18:56.713Z,27.0
2022-08-26T12:24:03.251Z,27.0
2022-08-26T12:29:20.219Z,27.0
2022-08-26T12:34:05.960Z,26.9
2022-08-26T12:39:22.458Z,26.9
2022-08-26T12:44:28.850Z,26.8
2022-08-26T12:49:55.345Z,26.8
2022-08-26T12:55:01.748Z,26.8
2022-08-26T12:59:48.276Z,26.7
2022-08-26T13:10:01.091Z,26.8
2022-08-26T13:15:07.540Z,26.8
2022-08-26T13:20:13.901Z,26.8
2022-08-26T13:26:31.685Z,26.9
2022-08-26T13:30:46.952Z,27.0
2022-08-26T13:35:57.411Z,27.1
2022-08-26T13:40:39.792Z,27.1
2022-08-26T13:45:49.356Z,27.2
2022-08-26T13:50:55.738Z,27.2
2022-08-26T13:56:02.110Z,27.3
2022-08-26T14:01:08.556Z,27.3
2022-08-26T14:06:38.953Z,27.4
2022-08-26T14:11:21.255Z,27.4
2022-08-26T14:16:27.686Z,27.4
2022-08-26T14:21:34.100Z,27.4
2022-08-26T14:26:40.486Z,27.4
2022-08-26T14:31:46.946Z,27.4
2022-08-26T14:36:53.423Z,27.4
2022-08-26T14:42:19.890Z,27.4
2022-08-26T14:47:06.295Z,27.3
2022-08-26T14:52:12.644Z,27.2
2022-08-26T14:58:19.188Z,27.1
2022-08-26T15:07:55.870Z,26.8
2022-08-26T15:12:38.260Z,26.6
2022-08-26T15:18:09.044Z,26.5
2022-08-26T15:22:51.191Z,26.3
2022-08-26T15:27:57.591Z,26.2
2022-08-26T15:33:03.961Z,26.0
2022-08-26T15:38:30.542Z,25.9
2022-08-26T15:43:40.985Z,25.8
2022-08-26T15:48:23.339Z,25.7
2022-08-26T15:53:29.750Z,25.6
2022-08-26T15:58:36.304Z,25.5
2022-08-26T16:03:42.662Z,25.5
2022-08-26T16:08:49.064Z,25.4
2022-08-26T16:13:55.459Z,25.3
2022-08-26T16:19:06.819Z,25.2
2022-08-26T16:24:08.220Z,25.1
2022-08-26T16:29:14.616Z,25.1
2022-08-26T16:34:21.003Z,25.0
2022-08-26T16:39:17.400Z,24.9
2022-08-26T16:44:33.882Z,24.7
2022-08-26T16:49:40.383Z,24.6
2022-08-26T16:54:36.841Z,24.5
2022-08-26T16:59:53.256Z,24.4
2022-08-26T17:05:33.759Z,24.2
2022-08-26T17:10:41.097Z,24.2
2022-08-26T17:15:47.490Z,24.1
2022-08-26T17:31:06.942Z,23.9
2022-08-26T17:36:03.229Z,23.8
2022-08-26T17:41:23.676Z,23.7
2022-08-26T17:46:16.106Z,23.6
2022-08-26T17:51:32.486Z,23.6
2022-08-26T17:56:42.868Z,23.5
2022-08-26T18:06:51.732Z,23.3
2022-08-26T18:12:18.894Z,23.2
2022-08-26T18:17:29.293Z,23.1
2022-08-26T18:22:11.621Z,23.0
2022-08-26T18:27:07.984Z,23.0
2022-08-26T18:32:24.509Z,22.9
2022-08-26T18:37:31.736Z,22.8
2022-08-26T18:42:37.482Z,22.7
2022-08-26T18:48:07.898Z,22.6
2022-08-26T18:52:54.247Z,22.5
2022-08-26T18:57:56.626Z,22.4
2022-08-26T19:03:03.120Z,22.3
2022-08-26T19:08:09.570Z,22.2
2022-08-26T19:24:12.649Z,21.9
2022-08-26T19:34:25.529Z,21.8
2022-08-26T19:39:31.911Z,21.7
2022-08-26T19:44:38.310Z,21.6
2022-08-26T19:49:44.761Z,21.5
2022-08-26T19:55:15.295Z,21.5
2022-08-26T19:59:57.609Z,21.4
2022-08-26T20:05:24.043Z,21.3
2022-08-26T20:10:00.399Z,21.3
2022-08-26T20:15:05.776Z,21.2
2022-08-26T20:25:29.684Z,21.1
2022-08-26T20:30:36.075Z,21.0
2022-08-26T20:35:42.459Z,20.9
2022-08-26T20:40:48.842Z,20.9
2022-08-26T20:45:55.334Z,20.8
2022-08-26T20:51:42.736Z,20.7
2022-08-26T20:56:50.116Z,20.7
2022-08-26T21:01:56.500Z,20.6
2022-08-26T21:07:26.921Z,20.6
2022-08-26T21:11:59.409Z,20.5
2022-08-26T21:17:19.831Z,20.4
2022-08-26T21:22:22.192Z,20.4
2022-08-26T21:27:26.123Z,20.3
2022-08-26T21:32:58.204Z,20.3
2022-08-26T21:37:41.549Z,20.2
2022-08-26T21:43:08.072Z,20.2
2022-08-26T21:47:54.529Z,20.1
2022-08-26T21:53:00.909Z,20.1
2022-08-26T21:58:07.378Z,20.0
2022-08-26T22:03:13.687Z,20.0
2022-08-26T22:08:20.056Z,19.9
2022-08-26T22:13:26.426Z,19.9
2022-08-26T22:18:32.810Z,19.9
2022-08-26T22:23:39.316Z,19.8
2022-08-26T22:28:45.820Z,19.7
2022-08-26T22:34:12.312Z,19.7
2022-08-26T22:39:02.662Z,19.7
2022-08-26T22:44:05.043Z,19.7
2022-08-26T22:49:11.410Z,19.6
2022-08-26T23:04:20.543Z,19.6
2022-08-26T23:09:37.049Z,19.5
2022-08-26T23:15:07.517Z,19.5
2022-08-26T23:31:56.265Z,19.7
2022-08-26T23:37:06.257Z,19.7
2022-08-26T23:42:09.990Z,19.7
2022-08-26T23:47:19.971Z,19.6
2022-08-26T23:57:52.782Z,19.4
